sensor_id;sensor_type;location;lat;lon;timestamp;P1;durP1;ratioP1;P2;durP2;ratioP2
48578;SDS011;34357;51.948;6.132;2024-03-29T00:00:58;3.55;;;0.90;;
48578;SDS011;34357;51.948;6.132;2024-03-29T00:03:25;8.77;;;1.35;;
48578;SDS011;34357;51.948;6.132;2024-03-29T00:05:50;7.97;;;1.30;;
48578;SDS011;34357;51.948;6.132;2024-03-29T00:08:16;4.65;;;1.00;;
48578;SDS011;34357;51.948;6.132;2024-03-29T00:10:42;10.18;;;1.38;;
48578;SDS011;34357;51.948;6.132;2024-03-29T00:13:07;6.45;;;1.42;;
48578;SDS011;34357;51.948;6.132;2024-03-29T00:15:33;4.65;;;0.90;;
48578;SDS011;34357;51.948;6.132;2024-03-29T00:17:59;6.57;;;1.10;;
48578;SDS011;34357;51.948;6.132;2024-03-29T00:20:25;7.45;;;1.02;;
48578;SDS011;34357;51.948;6.132;2024-03-29T00:22:50;7.45;;;1.30;;
48578;SDS011;34357;51.948;6.132;2024-03-29T00:25:16;5.68;;;0.88;;
48578;SDS011;34357;51.948;6.132;2024-03-29T00:27:42;4.03;;;0.80;;
48578;SDS011;34357;51.948;6.132;2024-03-29T00:30:09;6.30;;;1.10;;
48578;SDS011;34357;51.948;6.132;2024-03-29T00:32:35;5.35;;;1.05;;
48578;SDS011;34357;51.948;6.132;2024-03-29T00:35:01;7.55;;;1.05;;
48578;SDS011;34357;51.948;6.132;2024-03-29T00:37:27;7.68;;;1.27;;
48578;SDS011;34357;51.948;6.132;2024-03-29T00:39:53;6.80;;;1.13;;
48578;SDS011;34357;51.948;6.132;2024-03-29T00:42:18;7.15;;;1.27;;
48578;SDS011;34357;51.948;6.132;2024-03-29T00:44:46;5.88;;;0.90;;
48578;SDS011;34357;51.948;6.132;2024-03-29T00:47:12;7.88;;;1.30;;
48578;SDS011;34357;51.948;6.132;2024-03-29T00:49:38;4.93;;;1.55;;
48578;SDS011;34357;51.948;6.132;2024-03-29T00:52:04;4.97;;;1.08;;
48578;SDS011;34357;51.948;6.132;2024-03-29T00:54:30;4.47;;;0.75;;
48578;SDS011;34357;51.948;6.132;2024-03-29T00:56:56;7.22;;;1.30;;
48578;SDS011;34357;51.948;6.132;2024-03-29T00:59:22;5.65;;;0.80;;
48578;SDS011;34357;51.948;6.132;2024-03-29T01:01:48;5.50;;;0.80;;
48578;SDS011;34357;51.948;6.132;2024-03-29T01:04:14;4.18;;;1.00;;
48578;SDS011;34357;51.948;6.132;2024-03-29T01:06:40;3.63;;;0.68;;
48578;SDS011;34357;51.948;6.132;2024-03-29T01:09:06;4.75;;;0.60;;
48578;SDS011;34357;51.948;6.132;2024-03-29T01:11:31;4.07;;;0.70;;
48578;SDS011;34357;51.948;6.132;2024-03-29T01:13:57;4.72;;;0.70;;
48578;SDS011;34357;51.948;6.132;2024-03-29T01:16:23;6.93;;;1.17;;
48578;SDS011;34357;51.948;6.132;2024-03-29T01:18:49;9.13;;;0.90;;
48578;SDS011;34357;51.948;6.132;2024-03-29T01:21:17;4.97;;;1.10;;
48578;SDS011;34357;51.948;6.132;2024-03-29T01:23:43;4.45;;;0.90;;
48578;SDS011;34357;51.948;6.132;2024-03-29T01:26:09;6.38;;;1.05;;
48578;SDS011;34357;51.948;6.132;2024-03-29T01:28:37;2.70;;;0.73;;
48578;SDS011;34357;51.948;6.132;2024-03-29T01:31:03;3.95;;;0.82;;
48578;SDS011;34357;51.948;6.132;2024-03-29T01:33:30;4.28;;;1.00;;
48578;SDS011;34357;51.948;6.132;2024-03-29T01:35:58;2.58;;;0.80;;
48578;SDS011;34357;51.948;6.132;2024-03-29T01:38:23;5.63;;;1.15;;
48578;SDS011;34357;51.948;6.132;2024-03-29T01:40:49;5.47;;;0.95;;
48578;SDS011;34357;51.948;6.132;2024-03-29T01:43:15;3.38;;;0.90;;
48578;SDS011;34357;51.948;6.132;2024-03-29T01:45:42;6.75;;;1.00;;
48578;SDS011;34357;51.948;6.132;2024-03-29T01:48:12;3.97;;;0.77;;
48578;SDS011;34357;51.948;6.132;2024-03-29T01:50:38;5.57;;;0.90;;
48578;SDS011;34357;51.948;6.132;2024-03-29T01:53:05;4.72;;;0.75;;
48578;SDS011;34357;51.948;6.132;2024-03-29T01:55:32;2.80;;;0.70;;
48578;SDS011;34357;51.948;6.132;2024-03-29T01:57:59;5.10;;;0.90;;
48578;SDS011;34357;51.948;6.132;2024-03-29T02:00:25;4.63;;;1.05;;
48578;SDS011;34357;51.948;6.132;2024-03-29T02:02:52;2.95;;;0.60;;
48578;SDS011;34357;51.948;6.132;2024-03-29T02:05:18;3.85;;;0.80;;
48578;SDS011;34357;51.948;6.132;2024-03-29T02:07:45;2.33;;;0.75;;
48578;SDS011;34357;51.948;6.132;2024-03-29T02:10:13;8.27;;;0.95;;
48578;SDS011;34357;51.948;6.132;2024-03-29T02:12:40;3.40;;;0.70;;
48578;SDS011;34357;51.948;6.132;2024-03-29T02:15:05;4.13;;;1.00;;
48578;SDS011;34357;51.948;6.132;2024-03-29T02:17:32;3.95;;;0.70;;
48578;SDS011;34357;51.948;6.132;2024-03-29T02:19:58;4.68;;;0.80;;
48578;SDS011;34357;51.948;6.132;2024-03-29T02:22:24;5.70;;;0.80;;
48578;SDS011;34357;51.948;6.132;2024-03-29T02:24:50;4.57;;;1.00;;
48578;SDS011;34357;51.948;6.132;2024-03-29T02:27:17;5.00;;;0.75;;
48578;SDS011;34357;51.948;6.132;2024-03-29T02:29:43;4.15;;;0.80;;
48578;SDS011;34357;51.948;6.132;2024-03-29T02:32:08;3.53;;;0.85;;
48578;SDS011;34357;51.948;6.132;2024-03-29T02:34:34;5.30;;;1.10;;
48578;SDS011;34357;51.948;6.132;2024-03-29T02:37:00;4.60;;;0.80;;
48578;SDS011;34357;51.948;6.132;2024-03-29T02:39:26;4.32;;;1.02;;
48578;SDS011;34357;51.948;6.132;2024-03-29T02:41:52;2.20;;;0.65;;
48578;SDS011;34357;51.948;6.132;2024-03-29T02:44:18;4.28;;;1.20;;
48578;SDS011;34357;51.948;6.132;2024-03-29T02:46:44;4.82;;;0.80;;
48578;SDS011;34357;51.948;6.132;2024-03-29T02:49:09;7.32;;;0.90;;
48578;SDS011;34357;51.948;6.132;2024-03-29T02:51:35;6.25;;;1.15;;
48578;SDS011;34357;51.948;6.132;2024-03-29T02:54:01;6.07;;;0.80;;
48578;SDS011;34357;51.948;6.132;2024-03-29T02:56:27;11.40;;;1.30;;
48578;SDS011;34357;51.948;6.132;2024-03-29T02:58:54;7.00;;;0.82;;
48578;SDS011;34357;51.948;6.132;2024-03-29T03:01:20;4.95;;;1.02;;
48578;SDS011;34357;51.948;6.132;2024-03-29T03:03:46;5.80;;;1.00;;
48578;SDS011;34357;51.948;6.132;2024-03-29T03:06:12;4.75;;;0.80;;
48578;SDS011;34357;51.948;6.132;2024-03-29T03:08:37;6.88;;;0.95;;
48578;SDS011;34357;51.948;6.132;2024-03-29T03:11:21;7.15;;;0.93;;
48578;SDS011;34357;51.948;6.132;2024-03-29T03:13:47;3.10;;;0.70;;
48578;SDS011;34357;51.948;6.132;2024-03-29T03:16:13;6.15;;;1.00;;
48578;SDS011;34357;51.948;6.132;2024-03-29T03:18:39;5.05;;;0.65;;
48578;SDS011;34357;51.948;6.132;2024-03-29T03:21:04;4.97;;;1.10;;
48578;SDS011;34357;51.948;6.132;2024-03-29T03:23:30;4.60;;;0.65;;
48578;SDS011;34357;51.948;6.132;2024-03-29T03:25:56;5.68;;;0.80;;
48578;SDS011;34357;51.948;6.132;2024-03-29T03:28:23;5.53;;;1.00;;
48578;SDS011;34357;51.948;6.132;2024-03-29T03:30:49;3.88;;;0.90;;
48578;SDS011;34357;51.948;6.132;2024-03-29T03:33:18;5.07;;;1.00;;
48578;SDS011;34357;51.948;6.132;2024-03-29T03:35:45;9.13;;;0.90;;
48578;SDS011;34357;51.948;6.132;2024-03-29T03:38:11;8.85;;;1.08;;
48578;SDS011;34357;51.948;6.132;2024-03-29T03:40:37;5.47;;;1.00;;
48578;SDS011;34357;51.948;6.132;2024-03-29T03:43:04;2.85;;;0.95;;
48578;SDS011;34357;51.948;6.132;2024-03-29T03:45:33;5.35;;;1.08;;
48578;SDS011;34357;51.948;6.132;2024-03-29T03:47:59;4.75;;;1.23;;
48578;SDS011;34357;51.948;6.132;2024-03-29T03:50:25;4.07;;;0.80;;
48578;SDS011;34357;51.948;6.132;2024-03-29T03:52:51;6.00;;;0.80;;
48578;SDS011;34357;51.948;6.132;2024-03-29T03:55:17;2.42;;;0.73;;
48578;SDS011;34357;51.948;6.132;2024-03-29T03:57:43;4.63;;;1.00;;
48578;SDS011;34357;51.948;6.132;2024-03-29T04:00:08;5.55;;;0.85;;
48578;SDS011;34357;51.948;6.132;2024-03-29T04:02:38;5.38;;;0.93;;
48578;SDS011;34357;51.948;6.132;2024-03-29T04:05:03;5.00;;;0.70;;
48578;SDS011;34357;51.948;6.132;2024-03-29T04:07:29;3.63;;;1.00;;
48578;SDS011;34357;51.948;6.132;2024-03-29T04:09:55;2.60;;;0.80;;
48578;SDS011;34357;51.948;6.132;2024-03-29T04:12:21;4.50;;;0.95;;
48578;SDS011;34357;51.948;6.132;2024-03-29T04:14:46;5.75;;;1.05;;
48578;SDS011;34357;51.948;6.132;2024-03-29T04:17:12;3.45;;;0.70;;
48578;SDS011;34357;51.948;6.132;2024-03-29T04:19:38;8.15;;;1.45;;
48578;SDS011;34357;51.948;6.132;2024-03-29T04:22:03;2.67;;;0.77;;
48578;SDS011;34357;51.948;6.132;2024-03-29T04:24:29;4.32;;;0.88;;
48578;SDS011;34357;51.948;6.132;2024-03-29T04:26:55;7.72;;;1.02;;
48578;SDS011;34357;51.948;6.132;2024-03-29T04:29:21;8.32;;;1.10;;
48578;SDS011;34357;51.948;6.132;2024-03-29T04:31:47;7.80;;;1.00;;
48578;SDS011;34357;51.948;6.132;2024-03-29T04:34:13;6.47;;;1.02;;
48578;SDS011;34357;51.948;6.132;2024-03-29T04:36:38;5.07;;;1.20;;
48578;SDS011;34357;51.948;6.132;2024-03-29T04:39:04;6.88;;;1.27;;
48578;SDS011;34357;51.948;6.132;2024-03-29T04:41:30;5.32;;;1.15;;
48578;SDS011;34357;51.948;6.132;2024-03-29T04:44:02;6.97;;;1.02;;
48578;SDS011;34357;51.948;6.132;2024-03-29T04:46:29;7.85;;;1.00;;
48578;SDS011;34357;51.948;6.132;2024-03-29T04:48:56;6.15;;;1.08;;
48578;SDS011;34357;51.948;6.132;2024-03-29T04:51:22;7.75;;;1.30;;
48578;SDS011;34357;51.948;6.132;2024-03-29T04:53:48;3.60;;;0.90;;
48578;SDS011;34357;51.948;6.132;2024-03-29T04:56:14;4.93;;;0.95;;
48578;SDS011;34357;51.948;6.132;2024-03-29T04:58:40;5.50;;;1.10;;
48578;SDS011;34357;51.948;6.132;2024-03-29T05:01:06;5.95;;;1.23;;
48578;SDS011;34357;51.948;6.132;2024-03-29T05:03:32;8.30;;;1.00;;
48578;SDS011;34357;51.948;6.132;2024-03-29T05:05:58;8.70;;;1.45;;
48578;SDS011;34357;51.948;6.132;2024-03-29T05:08:24;4.57;;;0.95;;
48578;SDS011;34357;51.948;6.132;2024-03-29T05:10:50;6.75;;;1.70;;
48578;SDS011;34357;51.948;6.132;2024-03-29T05:13:16;3.25;;;0.88;;
48578;SDS011;34357;51.948;6.132;2024-03-29T05:15:43;2.80;;;0.80;;
48578;SDS011;34357;51.948;6.132;2024-03-29T05:18:09;7.47;;;1.20;;
48578;SDS011;34357;51.948;6.132;2024-03-29T05:20:35;5.47;;;0.90;;
48578;SDS011;34357;51.948;6.132;2024-03-29T05:23:01;4.38;;;1.13;;
48578;SDS011;34357;51.948;6.132;2024-03-29T05:25:27;4.53;;;1.10;;
48578;SDS011;34357;51.948;6.132;2024-03-29T05:27:53;4.20;;;1.10;;
48578;SDS011;34357;51.948;6.132;2024-03-29T05:30:19;3.78;;;1.10;;
48578;SDS011;34357;51.948;6.132;2024-03-29T05:32:45;8.27;;;1.50;;
48578;SDS011;34357;51.948;6.132;2024-03-29T05:35:11;3.63;;;1.10;;
48578;SDS011;34357;51.948;6.132;2024-03-29T05:37:36;5.88;;;1.35;;
48578;SDS011;34357;51.948;6.132;2024-03-29T05:40:02;8.32;;;1.33;;
48578;SDS011;34357;51.948;6.132;2024-03-29T05:42:31;2.63;;;1.00;;
48578;SDS011;34357;51.948;6.132;2024-03-29T05:45:03;4.90;;;1.40;;
48578;SDS011;34357;51.948;6.132;2024-03-29T05:47:30;5.30;;;1.35;;
48578;SDS011;34357;51.948;6.132;2024-03-29T05:49:56;2.45;;;0.85;;
48578;SDS011;34357;51.948;6.132;2024-03-29T05:52:22;6.18;;;1.27;;
48578;SDS011;34357;51.948;6.132;2024-03-29T05:54:48;5.97;;;1.17;;
48578;SDS011;34357;51.948;6.132;2024-03-29T05:57:14;5.30;;;1.05;;
48578;SDS011;34357;51.948;6.132;2024-03-29T05:59:41;3.45;;;0.95;;
48578;SDS011;34357;51.948;6.132;2024-03-29T06:02:06;5.80;;;1.17;;
48578;SDS011;34357;51.948;6.132;2024-03-29T06:04:32;6.35;;;1.00;;
48578;SDS011;34357;51.948;6.132;2024-03-29T06:07:01;5.90;;;0.93;;
48578;SDS011;34357;51.948;6.132;2024-03-29T06:09:28;2.38;;;0.85;;
48578;SDS011;34357;51.948;6.132;2024-03-29T06:11:54;4.57;;;1.10;;
48578;SDS011;34357;51.948;6.132;2024-03-29T06:14:21;3.60;;;1.17;;
48578;SDS011;34357;51.948;6.132;2024-03-29T06:17:08;4.93;;;1.30;;
48578;SDS011;34357;51.948;6.132;2024-03-29T06:19:50;5.07;;;1.83;;
48578;SDS011;34357;51.948;6.132;2024-03-29T06:22:19;4.57;;;1.70;;
48578;SDS011;34357;51.948;6.132;2024-03-29T06:24:45;6.75;;;1.92;;
48578;SDS011;34357;51.948;6.132;2024-03-29T06:27:11;6.30;;;1.65;;
48578;SDS011;34357;51.948;6.132;2024-03-29T06:29:43;6.55;;;2.25;;
48578;SDS011;34357;51.948;6.132;2024-03-29T06:32:09;5.40;;;1.60;;
48578;SDS011;34357;51.948;6.132;2024-03-29T06:34:35;5.05;;;1.65;;
48578;SDS011;34357;51.948;6.132;2024-03-29T06:37:00;9.15;;;1.60;;
48578;SDS011;34357;51.948;6.132;2024-03-29T06:39:26;6.90;;;1.60;;
48578;SDS011;34357;51.948;6.132;2024-03-29T06:41:52;6.18;;;1.65;;
48578;SDS011;34357;51.948;6.132;2024-03-29T06:44:18;7.10;;;1.60;;
48578;SDS011;34357;51.948;6.132;2024-03-29T06:46:43;2.85;;;1.13;;
48578;SDS011;34357;51.948;6.132;2024-03-29T06:49:09;4.60;;;1.40;;
48578;SDS011;34357;51.948;6.132;2024-03-29T06:51:35;4.20;;;1.38;;
48578;SDS011;34357;51.948;6.132;2024-03-29T06:54:00;6.68;;;1.40;;
48578;SDS011;34357;51.948;6.132;2024-03-29T06:56:26;8.18;;;1.35;;
48578;SDS011;34357;51.948;6.132;2024-03-29T06:58:52;5.85;;;1.60;;
48578;SDS011;34357;51.948;6.132;2024-03-29T07:01:17;2.53;;;0.95;;
48578;SDS011;34357;51.948;6.132;2024-03-29T07:03:43;4.43;;;1.45;;
48578;SDS011;34357;51.948;6.132;2024-03-29T07:06:09;3.83;;;1.52;;
48578;SDS011;34357;51.948;6.132;2024-03-29T07:08:35;4.22;;;1.20;;
48578;SDS011;34357;51.948;6.132;2024-03-29T07:11:01;3.05;;;1.40;;
48578;SDS011;34357;51.948;6.132;2024-03-29T07:13:28;5.85;;;1.50;;
48578;SDS011;34357;51.948;6.132;2024-03-29T07:15:56;3.70;;;1.38;;
48578;SDS011;34357;51.948;6.132;2024-03-29T07:18:25;5.85;;;1.38;;
48578;SDS011;34357;51.948;6.132;2024-03-29T07:20:51;5.68;;;1.17;;
48578;SDS011;34357;51.948;6.132;2024-03-29T07:23:17;6.60;;;1.95;;
48578;SDS011;34357;51.948;6.132;2024-03-29T07:26:05;3.30;;;1.17;;
48578;SDS011;34357;51.948;6.132;2024-03-29T07:28:30;4.53;;;1.35;;
48578;SDS011;34357;51.948;6.132;2024-03-29T07:30:56;6.35;;;1.50;;
48578;SDS011;34357;51.948;6.132;2024-03-29T07:33:23;3.70;;;1.08;;
48578;SDS011;34357;51.948;6.132;2024-03-29T07:35:54;3.92;;;1.42;;
48578;SDS011;34357;51.948;6.132;2024-03-29T07:38:20;8.60;;;1.80;;
48578;SDS011;34357;51.948;6.132;2024-03-29T07:40:48;6.28;;;1.20;;
48578;SDS011;34357;51.948;6.132;2024-03-29T07:43:15;5.20;;;1.50;;
48578;SDS011;34357;51.948;6.132;2024-03-29T07:45:41;4.63;;;1.20;;
48578;SDS011;34357;51.948;6.132;2024-03-29T07:48:18;3.38;;;1.08;;
48578;SDS011;34357;51.948;6.132;2024-03-29T07:50:44;3.08;;;1.25;;
48578;SDS011;34357;51.948;6.132;2024-03-29T07:53:11;3.97;;;1.45;;
48578;SDS011;34357;51.948;6.132;2024-03-29T07:55:37;2.10;;;1.10;;
48578;SDS011;34357;51.948;6.132;2024-03-29T07:58:05;6.32;;;1.90;;
48578;SDS011;34357;51.948;6.132;2024-03-29T08:00:31;5.47;;;1.23;;
48578;SDS011;34357;51.948;6.132;2024-03-29T08:02:58;3.60;;;1.30;;
48578;SDS011;34357;51.948;6.132;2024-03-29T08:05:24;3.83;;;1.23;;
48578;SDS011;34357;51.948;6.132;2024-03-29T08:07:50;6.80;;;1.63;;
48578;SDS011;34357;51.948;6.132;2024-03-29T08:10:16;3.60;;;1.33;;
48578;SDS011;34357;51.948;6.132;2024-03-29T08:12:41;5.40;;;1.35;;
48578;SDS011;34357;51.948;6.132;2024-03-29T08:15:07;4.80;;;1.02;;
48578;SDS011;34357;51.948;6.132;2024-03-29T08:17:33;9.20;;;1.52;;
48578;SDS011;34357;51.948;6.132;2024-03-29T08:20:00;3.60;;;1.30;;
48578;SDS011;34357;51.948;6.132;2024-03-29T08:22:26;3.50;;;1.25;;
48578;SDS011;34357;51.948;6.132;2024-03-29T08:24:53;6.07;;;1.30;;
48578;SDS011;34357;51.948;6.132;2024-03-29T08:27:19;5.03;;;1.13;;
48578;SDS011;34357;51.948;6.132;2024-03-29T08:29:45;5.78;;;1.17;;
48578;SDS011;34357;51.948;6.132;2024-03-29T08:32:11;4.05;;;1.52;;
48578;SDS011;34357;51.948;6.132;2024-03-29T08:34:38;4.75;;;1.52;;
48578;SDS011;34357;51.948;6.132;2024-03-29T08:37:04;3.90;;;0.93;;
48578;SDS011;34357;51.948;6.132;2024-03-29T08:39:30;2.95;;;1.25;;
48578;SDS011;34357;51.948;6.132;2024-03-29T08:41:57;6.13;;;1.70;;
48578;SDS011;34357;51.948;6.132;2024-03-29T08:44:23;8.52;;;1.80;;
48578;SDS011;34357;51.948;6.132;2024-03-29T08:46:50;5.68;;;1.90;;
48578;SDS011;34357;51.948;6.132;2024-03-29T08:49:16;6.68;;;1.73;;
48578;SDS011;34357;51.948;6.132;2024-03-29T08:51:42;6.47;;;1.65;;
48578;SDS011;34357;51.948;6.132;2024-03-29T08:54:07;7.40;;;1.75;;
48578;SDS011;34357;51.948;6.132;2024-03-29T08:56:33;10.05;;;1.95;;
48578;SDS011;34357;51.948;6.132;2024-03-29T08:59:02;6.93;;;2.03;;
48578;SDS011;34357;51.948;6.132;2024-03-29T09:01:33;4.97;;;1.83;;
48578;SDS011;34357;51.948;6.132;2024-03-29T09:03:59;4.30;;;1.98;;
48578;SDS011;34357;51.948;6.132;2024-03-29T09:06:24;10.05;;;2.08;;
48578;SDS011;34357;51.948;6.132;2024-03-29T09:08:50;3.80;;;1.67;;
48578;SDS011;34357;51.948;6.132;2024-03-29T09:11:16;6.28;;;2.30;;
48578;SDS011;34357;51.948;6.132;2024-03-29T09:13:41;5.82;;;1.95;;
48578;SDS011;34357;51.948;6.132;2024-03-29T09:16:07;6.18;;;2.15;;
48578;SDS011;34357;51.948;6.132;2024-03-29T09:18:33;6.78;;;1.88;;
48578;SDS011;34357;51.948;6.132;2024-03-29T09:20:59;6.22;;;1.73;;
48578;SDS011;34357;51.948;6.132;2024-03-29T09:23:25;3.88;;;1.90;;
48578;SDS011;34357;51.948;6.132;2024-03-29T09:25:54;4.82;;;1.52;;
48578;SDS011;34357;51.948;6.132;2024-03-29T09:28:20;4.85;;;1.80;;
48578;SDS011;34357;51.948;6.132;2024-03-29T09:30:47;6.20;;;1.92;;
48578;SDS011;34357;51.948;6.132;2024-03-29T09:33:13;6.53;;;1.70;;
48578;SDS011;34357;51.948;6.132;2024-03-29T09:35:39;4.35;;;1.80;;
48578;SDS011;34357;51.948;6.132;2024-03-29T09:38:05;4.55;;;1.77;;
48578;SDS011;34357;51.948;6.132;2024-03-29T09:40:30;7.53;;;1.95;;
48578;SDS011;34357;51.948;6.132;2024-03-29T09:42:57;6.25;;;2.15;;
48578;SDS011;34357;51.948;6.132;2024-03-29T09:45:29;5.03;;;2.30;;
48578;SDS011;34357;51.948;6.132;2024-03-29T09:47:58;5.22;;;2.00;;
48578;SDS011;34357;51.948;6.132;2024-03-29T09:50:26;9.75;;;1.98;;
48578;SDS011;34357;51.948;6.132;2024-03-29T09:52:52;5.25;;;1.80;;
48578;SDS011;34357;51.948;6.132;2024-03-29T09:55:19;5.57;;;1.95;;
48578;SDS011;34357;51.948;6.132;2024-03-29T09:57:46;4.47;;;1.67;;
48578;SDS011;34357;51.948;6.132;2024-03-29T10:00:13;3.92;;;1.45;;
48578;SDS011;34357;51.948;6.132;2024-03-29T10:02:39;6.13;;;1.92;;
48578;SDS011;34357;51.948;6.132;2024-03-29T10:05:06;5.28;;;1.60;;
48578;SDS011;34357;51.948;6.132;2024-03-29T10:07:33;5.90;;;1.75;;
48578;SDS011;34357;51.948;6.132;2024-03-29T10:10:01;4.20;;;1.45;;
48578;SDS011;34357;51.948;6.132;2024-03-29T10:12:28;2.65;;;1.77;;
48578;SDS011;34357;51.948;6.132;2024-03-29T10:14:54;6.53;;;1.90;;
48578;SDS011;34357;51.948;6.132;2024-03-29T10:17:30;5.43;;;1.70;;
48578;SDS011;34357;51.948;6.132;2024-03-29T10:20:00;5.07;;;1.63;;
48578;SDS011;34357;51.948;6.132;2024-03-29T10:24:56;4.55;;;1.73;;
48578;SDS011;34357;51.948;6.132;2024-03-29T10:27:24;3.80;;;1.70;;
48578;SDS011;34357;51.948;6.132;2024-03-29T10:29:52;5.75;;;2.50;;
48578;SDS011;34357;51.948;6.132;2024-03-29T10:32:18;5.35;;;1.60;;
48578;SDS011;34357;51.948;6.132;2024-03-29T10:34:44;4.47;;;1.70;;
48578;SDS011;34357;51.948;6.132;2024-03-29T10:37:10;4.18;;;1.70;;
48578;SDS011;34357;51.948;6.132;2024-03-29T10:39:36;6.18;;;2.05;;
48578;SDS011;34357;51.948;6.132;2024-03-29T10:42:01;3.42;;;1.40;;
48578;SDS011;34357;51.948;6.132;2024-03-29T10:44:29;3.95;;;1.80;;
48578;SDS011;34357;51.948;6.132;2024-03-29T10:46:56;3.50;;;1.33;;
48578;SDS011;34357;51.948;6.132;2024-03-29T10:49:23;2.38;;;1.50;;
48578;SDS011;34357;51.948;6.132;2024-03-29T10:51:49;4.50;;;1.75;;
48578;SDS011;34357;51.948;6.132;2024-03-29T10:54:16;4.45;;;1.55;;
48578;SDS011;34357;51.948;6.132;2024-03-29T10:56:42;6.22;;;1.33;;
48578;SDS011;34357;51.948;6.132;2024-03-29T10:59:14;5.53;;;1.55;;
48578;SDS011;34357;51.948;6.132;2024-03-29T11:01:44;2.13;;;1.25;;
48578;SDS011;34357;51.948;6.132;2024-03-29T11:04:16;3.55;;;1.60;;
48578;SDS011;34357;51.948;6.132;2024-03-29T11:06:54;3.05;;;1.40;;
48578;SDS011;34357;51.948;6.132;2024-03-29T11:09:24;1.88;;;1.42;;
48578;SDS011;34357;51.948;6.132;2024-03-29T11:11:55;2.78;;;1.02;;
48578;SDS011;34357;51.948;6.132;2024-03-29T11:14:31;3.22;;;1.35;;
48578;SDS011;34357;51.948;6.132;2024-03-29T11:17:02;2.22;;;1.50;;
48578;SDS011;34357;51.948;6.132;2024-03-29T11:19:29;2.67;;;1.02;;
48578;SDS011;34357;51.948;6.132;2024-03-29T11:21:55;2.63;;;1.70;;
48578;SDS011;34357;51.948;6.132;2024-03-29T11:24:22;5.07;;;1.77;;
48578;SDS011;34357;51.948;6.132;2024-03-29T11:26:48;3.25;;;1.70;;
48578;SDS011;34357;51.948;6.132;2024-03-29T11:29:20;2.63;;;1.42;;
48578;SDS011;34357;51.948;6.132;2024-03-29T11:31:47;3.20;;;1.50;;
48578;SDS011;34357;51.948;6.132;2024-03-29T11:34:14;2.35;;;1.20;;
48578;SDS011;34357;51.948;6.132;2024-03-29T11:36:44;2.35;;;1.38;;
48578;SDS011;34357;51.948;6.132;2024-03-29T11:39:19;2.33;;;1.40;;
48578;SDS011;34357;51.948;6.132;2024-03-29T11:41:46;3.28;;;1.13;;
48578;SDS011;34357;51.948;6.132;2024-03-29T11:44:13;2.67;;;1.10;;
48578;SDS011;34357;51.948;6.132;2024-03-29T11:46:39;2.92;;;1.02;;
48578;SDS011;34357;51.948;6.132;2024-03-29T11:49:05;2.90;;;1.15;;
48578;SDS011;34357;51.948;6.132;2024-03-29T11:51:31;3.25;;;1.08;;
48578;SDS011;34357;51.948;6.132;2024-03-29T11:53:59;2.42;;;1.08;;
48578;SDS011;34357;51.948;6.132;2024-03-29T11:56:25;1.95;;;0.95;;
48578;SDS011;34357;51.948;6.132;2024-03-29T11:58:51;2.28;;;1.20;;
48578;SDS011;34357;51.948;6.132;2024-03-29T12:01:18;3.47;;;0.75;;
48578;SDS011;34357;51.948;6.132;2024-03-29T12:03:43;4.32;;;0.82;;
48578;SDS011;34357;51.948;6.132;2024-03-29T12:06:10;1.63;;;0.70;;
48578;SDS011;34357;51.948;6.132;2024-03-29T12:08:37;2.33;;;0.70;;
48578;SDS011;34357;51.948;6.132;2024-03-29T12:11:04;1.65;;;0.90;;
48578;SDS011;34357;51.948;6.132;2024-03-29T12:13:30;1.17;;;0.55;;
48578;SDS011;34357;51.948;6.132;2024-03-29T12:15:57;2.38;;;0.73;;
48578;SDS011;34357;51.948;6.132;2024-03-29T12:18:24;1.33;;;0.60;;
48578;SDS011;34357;51.948;6.132;2024-03-29T12:20:52;1.30;;;0.80;;
48578;SDS011;34357;51.948;6.132;2024-03-29T12:23:18;2.00;;;0.60;;
48578;SDS011;34357;51.948;6.132;2024-03-29T12:25:45;1.17;;;0.50;;
48578;SDS011;34357;51.948;6.132;2024-03-29T12:28:12;2.30;;;0.70;;
48578;SDS011;34357;51.948;6.132;2024-03-29T12:30:43;3.22;;;0.90;;
48578;SDS011;34357;51.948;6.132;2024-03-29T12:33:15;0.80;;;0.60;;
48578;SDS011;34357;51.948;6.132;2024-03-29T12:35:42;1.67;;;0.82;;
48578;SDS011;34357;51.948;6.132;2024-03-29T12:38:10;0.55;;;0.50;;
48578;SDS011;34357;51.948;6.132;2024-03-29T12:40:38;2.63;;;0.70;;
48578;SDS011;34357;51.948;6.132;2024-03-29T12:43:05;3.08;;;0.60;;
48578;SDS011;34357;51.948;6.132;2024-03-29T12:45:35;1.15;;;0.60;;
48578;SDS011;34357;51.948;6.132;2024-03-29T12:48:03;1.92;;;0.60;;
48578;SDS011;34357;51.948;6.132;2024-03-29T12:50:39;2.92;;;0.60;;
48578;SDS011;34357;51.948;6.132;2024-03-29T12:53:07;4.07;;;0.77;;
48578;SDS011;34357;51.948;6.132;2024-03-29T12:55:34;2.40;;;0.65;;
48578;SDS011;34357;51.948;6.132;2024-03-29T12:58:07;1.45;;;0.60;;
48578;SDS011;34357;51.948;6.132;2024-03-29T13:00:35;0.73;;;0.57;;
48578;SDS011;34357;51.948;6.132;2024-03-29T13:03:01;0.90;;;0.60;;
48578;SDS011;34357;51.948;6.132;2024-03-29T13:05:27;2.67;;;0.80;;
48578;SDS011;34357;51.948;6.132;2024-03-29T13:07:57;0.77;;;0.40;;
48578;SDS011;34357;51.948;6.132;2024-03-29T13:10:23;1.08;;;0.50;;
48578;SDS011;34357;51.948;6.132;2024-03-29T13:12:49;2.33;;;0.90;;
48578;SDS011;34357;51.948;6.132;2024-03-29T13:15:16;1.55;;;0.82;;
48578;SDS011;34357;51.948;6.132;2024-03-29T13:17:42;1.85;;;0.68;;
48578;SDS011;34357;51.948;6.132;2024-03-29T13:20:08;1.85;;;0.40;;
48578;SDS011;34357;51.948;6.132;2024-03-29T13:22:36;1.38;;;0.38;;
48578;SDS011;34357;51.948;6.132;2024-03-29T13:25:02;1.38;;;0.35;;
48578;SDS011;34357;51.948;6.132;2024-03-29T13:27:30;2.03;;;0.60;;
48578;SDS011;34357;51.948;6.132;2024-03-29T13:29:56;0.88;;;0.30;;
48578;SDS011;34357;51.948;6.132;2024-03-29T13:32:21;2.25;;;0.60;;
48578;SDS011;34357;51.948;6.132;2024-03-29T13:34:47;3.35;;;0.98;;
48578;SDS011;34357;51.948;6.132;2024-03-29T13:37:13;1.33;;;0.38;;
48578;SDS011;34357;51.948;6.132;2024-03-29T13:39:38;1.38;;;0.40;;
48578;SDS011;34357;51.948;6.132;2024-03-29T13:42:04;1.52;;;0.73;;
48578;SDS011;34357;51.948;6.132;2024-03-29T13:44:30;1.13;;;0.55;;
48578;SDS011;34357;51.948;6.132;2024-03-29T13:46:57;1.35;;;0.60;;
48578;SDS011;34357;51.948;6.132;2024-03-29T13:49:23;3.65;;;0.60;;
48578;SDS011;34357;51.948;6.132;2024-03-29T13:51:55;2.72;;;0.52;;
48578;SDS011;34357;51.948;6.132;2024-03-29T13:54:21;1.40;;;0.70;;
48578;SDS011;34357;51.948;6.132;2024-03-29T13:56:49;1.77;;;0.60;;
48578;SDS011;34357;51.948;6.132;2024-03-29T13:59:14;1.35;;;0.70;;
48578;SDS011;34357;51.948;6.132;2024-03-29T14:01:40;0.93;;;0.50;;
48578;SDS011;34357;51.948;6.132;2024-03-29T14:04:06;3.63;;;0.70;;
48578;SDS011;34357;51.948;6.132;2024-03-29T14:06:32;1.27;;;0.43;;
48578;SDS011;34357;51.948;6.132;2024-03-29T14:08:58;1.83;;;0.47;;
48578;SDS011;34357;51.948;6.132;2024-03-29T14:11:24;1.27;;;0.40;;
48578;SDS011;34357;51.948;6.132;2024-03-29T14:13:49;1.63;;;0.50;;
48578;SDS011;34357;51.948;6.132;2024-03-29T14:16:21;2.00;;;0.38;;
48578;SDS011;34357;51.948;6.132;2024-03-29T14:18:49;1.17;;;0.40;;
48578;SDS011;34357;51.948;6.132;2024-03-29T14:21:15;2.65;;;0.40;;
48578;SDS011;34357;51.948;6.132;2024-03-29T14:23:41;0.75;;;0.30;;
48578;SDS011;34357;51.948;6.132;2024-03-29T14:26:06;2.17;;;0.40;;
48578;SDS011;34357;51.948;6.132;2024-03-29T14:28:32;0.95;;;0.40;;
48578;SDS011;34357;51.948;6.132;2024-03-29T14:30:58;0.40;;;0.20;;
48578;SDS011;34357;51.948;6.132;2024-03-29T14:33:23;0.50;;;0.50;;
48578;SDS011;34357;51.948;6.132;2024-03-29T14:35:49;0.95;;;0.40;;
48578;SDS011;34357;51.948;6.132;2024-03-29T14:38:15;1.52;;;0.52;;
48578;SDS011;34357;51.948;6.132;2024-03-29T14:40:41;0.57;;;0.40;;
48578;SDS011;34357;51.948;6.132;2024-03-29T14:43:07;3.17;;;0.50;;
48578;SDS011;34357;51.948;6.132;2024-03-29T14:45:33;1.20;;;0.35;;
48578;SDS011;34357;51.948;6.132;2024-03-29T14:47:58;1.65;;;0.50;;